createdAt,value
2018-04-30T06:01:25.254Z,14.6
2018-04-30T06:11:26.042Z,14.8
2018-04-30T06:21:25.100Z,13.3
2018-04-30T06:31:25.936Z,14.0
2018-04-30T06:41:25.893Z,14.6
2018-04-30T06:51:25.191Z,8.5
2018-04-30T07:01:28.390Z,7.5
2018-04-30T07:11:25.198Z,7.0
2018-04-30T07:21:25.136Z,8.4
2018-04-30T07:31:27.225Z,7.4
2018-04-30T07:41:24.946Z,7.8
2018-04-30T07:51:25.734Z,7.2
2018-04-30T08:01:26.106Z,7.2
2018-04-30T08:11:26.182Z,8.1
2018-04-30T08:21:27.173Z,7.3
2018-04-30T08:31:25.153Z,7.5
2018-04-30T08:41:25.515Z,6.0
2018-04-30T08:51:25.734Z,5.5
2018-04-30T09:01:26.053Z,5.7
2018-04-30T09:11:24.899Z,4.9
2018-04-30T09:21:25.059Z,4.7
2018-04-30T09:31:25.953Z,6.5
2018-04-30T09:41:26.673Z,4.8
2018-04-30T09:51:26.761Z,5.3
2018-04-30T10:01:26.210Z,4.9
2018-04-30T10:11:25.252Z,5.3
2018-04-30T10:21:25.252Z,5.0
2018-04-30T10:31:25.837Z,6.1
2018-04-30T10:41:25.860Z,5.7
2018-04-30T10:51:25.311Z,4.5
2018-04-30T11:11:26.143Z,4.1
2018-04-30T11:21:25.494Z,3.7
2018-04-30T11:31:25.657Z,4.8
2018-04-30T11:41:25.390Z,4.0
2018-04-30T11:51:26.102Z,5.2
2018-04-30T12:01:25.189Z,4.0
2018-04-30T12:11:26.206Z,5.1
2018-04-30T12:21:25.819Z,6.0
2018-04-30T12:31:26.275Z,4.3
2018-04-30T12:41:25.725Z,3.7
2018-04-30T12:51:25.645Z,3.4
2018-04-30T13:01:26.042Z,3.6
2018-04-30T13:11:25.618Z,6.1
2018-04-30T13:21:26.146Z,3.9
2018-04-30T13:31:25.063Z,5.4
2018-04-30T13:41:26.249Z,4.3
2018-04-30T13:51:25.421Z,4.0
2018-04-30T14:01:25.259Z,3.8
2018-04-30T14:11:32.482Z,4.2
2018-04-30T14:21:26.875Z,3.4
2018-04-30T14:31:25.877Z,3.9
2018-04-30T14:41:26.016Z,4.3
2018-04-30T14:51:25.263Z,4.2
2018-04-30T15:01:28.258Z,3.9
2018-04-30T15:11:25.124Z,4.0
2018-04-30T15:21:26.039Z,4.5
2018-04-30T15:31:25.887Z,3.8
2018-04-30T15:41:25.981Z,5.3
2018-04-30T15:51:26.223Z,4.2
2018-04-30T16:01:25.393Z,4.4
2018-04-30T16:11:27.018Z,5.6
2018-04-30T16:21:25.606Z,3.8
2018-04-30T16:31:27.278Z,4.5
2018-04-30T16:41:25.672Z,3.8
2018-04-30T16:51:25.784Z,4.6
2018-04-30T17:01:26.275Z,4.3
2018-04-30T17:11:26.771Z,4.5
2018-04-30T17:21:25.797Z,3.8
2018-04-30T17:31:27.126Z,4.2
2018-04-30T17:41:26.365Z,4.6
2018-04-30T17:51:25.270Z,5.6
2018-04-30T18:01:25.947Z,6.5
2018-04-30T18:11:25.922Z,6.5
2018-04-30T18:21:24.965Z,5.7
2018-04-30T18:31:26.163Z,4.2
2018-04-30T18:41:25.535Z,5.4
2018-04-30T18:51:26.623Z,4.9
2018-04-30T19:01:26.336Z,5.1
2018-04-30T19:11:25.956Z,5.9
2018-04-30T19:21:26.058Z,17.2
2018-04-30T19:31:26.496Z,5.4
2018-04-30T19:41:25.507Z,6.2
2018-04-30T19:51:25.590Z,6.6
2018-04-30T20:01:26.753Z,6.1
2018-04-30T20:11:25.890Z,7.1
2018-04-30T20:21:25.926Z,5.9
2018-04-30T20:31:25.601Z,5.8
2018-04-30T20:41:25.670Z,5.0
2018-04-30T20:51:25.478Z,5.4
2018-04-30T21:01:25.565Z,5.2
2018-04-30T21:11:25.847Z,5.3
2018-04-30T21:21:26.687Z,6.0
2018-04-30T21:31:26.539Z,5.4
2018-04-30T21:41:25.842Z,5.7
2018-04-30T21:51:27.031Z,6.2
2018-04-30T22:01:27.265Z,6.3
2018-04-30T22:11:26.569Z,6.4
2018-04-30T22:21:26.453Z,6.5
2018-04-30T22:31:25.498Z,6.6
2018-04-30T22:41:26.147Z,6.8
2018-04-30T22:51:25.859Z,7.7
2018-04-30T23:01:26.768Z,6.7
2018-04-30T23:11:25.977Z,6.2
2018-04-30T23:21:25.231Z,7.3
2018-04-30T23:31:26.652Z,7.1
2018-04-30T23:41:26.423Z,7.7
2018-04-30T23:51:26.970Z,8.2
